N5120W KDCA-
Flight info
| Callsign | N5120W |
|---|---|
| Flight time | N/A |
| Altitude | VFR |
| Route | VFR S |
| Aircraft |
Departure
| Time | 2026-05-05 23:39 |
|---|---|
| Airport | Ronald Reagan Washington National Airport (KDCA) |
Arrival
| Time | N/A |
|---|---|
| Airport | - |
| Time | Latitude | Longitude | Altitude | Speed | Heading |
|---|---|---|---|---|---|
| 2026-05-05 23:29 | 38.84788 | -77.04370 | 27 ft | 0 kts | 240° |
| 2026-05-05 23:31 | 38.84789 | -77.04370 | 27 ft | 0 kts | 232° |
| 2026-05-05 23:36 | 38.84823 | -77.04427 | 28 ft | 32 kts | 307° |
| 2026-05-05 23:36 | 38.84904 | -77.04472 | 132 ft | 22 kts | 264° |
| 2026-05-05 23:36 | 38.84911 | -77.04700 | 306 ft | 25 kts | 211° |
| 2026-05-05 23:37 | 38.84746 | -77.04841 | 343 ft | 28 kts | 197° |
| 2026-05-05 23:37 | 38.84498 | -77.04917 | 384 ft | 44 kts | 168° |
| 2026-05-05 23:37 | 38.84179 | -77.04876 | 311 ft | 48 kts | 200° |
| 2026-05-05 23:37 | 38.83972 | -77.05032 | 381 ft | 36 kts | 197° |
| 2026-05-05 23:38 | 38.83787 | -77.05206 | 406 ft | 29 kts | 204° |
| 2026-05-05 23:38 | 38.83682 | -77.05400 | 396 ft | 22 kts | 190° |
| 2026-05-05 23:38 | 38.83573 | -77.05547 | 771 ft | 25 kts | 189° |
| 2026-05-05 23:38 | 38.83327 | -77.05420 | 1063 ft | 50 kts | 164° |
| 2026-05-05 23:39 | 38.82965 | -77.05214 | 984 ft | 57 kts | 160° |
| 2026-05-05 23:39 | 38.82612 | -77.05048 | 1010 ft | 52 kts | 165° |
| 2026-05-05 23:39 | 38.82265 | -77.04931 | 1043 ft | 52 kts | 175° |
| 2026-05-05 23:39 | 38.81871 | -77.04939 | 948 ft | 67 kts | 185° |
| 2026-05-05 23:40 | 38.81414 | -77.04981 | 989 ft | 66 kts | 184° |
| 2026-05-05 23:40 | 38.80970 | -77.05096 | 1052 ft | 59 kts | 186° |
| 2026-05-05 23:40 | 38.80544 | -77.05142 | 1021 ft | 66 kts | 178° |
| 2026-05-05 23:40 | 38.80119 | -77.05075 | 1033 ft | 62 kts | 168° |
| 2026-05-05 23:41 | 38.79725 | -77.04813 | 994 ft | 69 kts | 139° |
| 2026-05-05 23:41 | 38.79468 | -77.04288 | 982 ft | 69 kts | 120° |
| 2026-05-05 23:41 | 38.79322 | -77.03715 | 1011 ft | 76 kts | 104° |
| 2026-05-05 23:41 | 38.79158 | -77.03096 | 994 ft | 61 kts | 139° |
| 2026-05-05 23:42 | 38.78872 | -77.03020 | 1042 ft | 44 kts | 219° |
| 2026-05-05 23:42 | 38.78888 | -77.03423 | 1119 ft | 47 kts | 255° |
| 2026-05-05 23:42 | 38.79040 | -77.03844 | 1096 ft | 57 kts | 268° |
| 2026-05-05 23:42 | 38.79184 | -77.04346 | 991 ft | 60 kts | 265° |
| 2026-05-05 23:43 | 38.79297 | -77.04841 | 983 ft | 48 kts | 255° |
| 2026-05-05 23:43 | 38.79296 | -77.05254 | 986 ft | 45 kts | 247° |
| 2026-05-05 23:43 | 38.79670 | -77.05424 | 939 ft | 81 kts | 4° |
| 2026-05-05 23:43 | 38.80217 | -77.05321 | 844 ft | 80 kts | 2° |
| 2026-05-05 23:44 | 38.80762 | -77.05210 | 853 ft | 75 kts | 3° |
| 2026-05-05 23:44 | 38.81314 | -77.05083 | 800 ft | 82 kts | 4° |
| 2026-05-05 23:44 | 38.81907 | -77.04939 | 705 ft | 90 kts | 1° |
| 2026-05-05 23:44 | 38.82500 | -77.04746 | 682 ft | 87 kts | 10° |
| 2026-05-05 23:45 | 38.83100 | -77.04578 | 607 ft | 90 kts | 0° |
| 2026-05-05 23:45 | 38.83749 | -77.04495 | 360 ft | 98 kts | 349° |
| 2026-05-05 23:45 | 38.84334 | -77.04539 | 156 ft | 66 kts | 350° |
| 2026-05-05 23:45 | 38.84630 | -77.04564 | 41 ft | 15 kts | 61° |
| 2026-05-05 23:46 | 38.84683 | -77.04533 | 25 ft | 0 kts | 56° |